Time;durP1;ratioP1;P1;durP2;ratioP2;P2;SDS_P1;SDS_P2;PMS_P1;PMS_P2;Temp;Humidity;BMP_temperature;BMP_pressure;BME280_temperature;BME280_humidity;BME280_pressure;Samples;Min_cycle;Max_cycle;Signal;HPM_P1;HPM_P2
2022/04/19 00:00:16;;;;;;;3.17;2.60;;;;;;;5.30;70.19;100649.59;4953165;28;20302;-68
2022/04/19 00:02:45;;;;;;;3.77;2.60;;;;;;;5.29;70.02;100638.38;4954484;28;20835;-71
2022/04/19 00:05:11;;;;;;;3.63;2.87;;;;;;;5.28;69.46;100636.66;4950834;28;20210;-70
2022/04/19 00:07:37;;;;;;;5.80;2.90;;;;;;;5.29;69.23;100628.06;4951195;28;20223;-69
2022/04/19 00:10:05;;;;;;;3.63;2.70;;;;;;;5.29;70.44;100627.16;4952779;28;20211;-70
2022/04/19 00:12:32;;;;;;;3.53;2.57;;;;;;;5.31;70.65;100625.44;4952683;28;20202;-70
2022/04/19 00:14:58;;;;;;;4.00;3.10;;;;;;;5.30;69.54;100621.16;4952710;28;20251;-70
2022/04/19 00:17:25;;;;;;;4.47;3.20;;;;;;;5.31;69.73;100628.00;4952824;28;20227;-71
2022/04/19 00:19:52;;;;;;;5.47;3.17;;;;;;;5.30;69.51;100627.16;4952692;28;20225;-70
2022/04/19 00:22:19;;;;;;;4.07;2.63;;;;;;;5.31;69.02;100623.72;4952718;28;20213;-71
2022/04/19 00:24:45;;;;;;;4.77;3.00;;;;;;;5.31;70.30;100623.72;4954392;28;20210;-70
2022/04/19 00:27:12;;;;;;;5.00;3.00;;;;;;;5.32;74.71;100615.09;4946843;28;20798;-70
2022/04/19 00:29:41;;;;;;;3.67;2.70;;;;;;;5.28;73.39;100615.13;4950209;29;20560;-70
2022/04/19 00:32:08;;;;;;;3.63;2.90;;;;;;;5.25;73.54;100610.81;4957652;28;20235;-70
2022/04/19 00:34:35;;;;;;;4.03;3.03;;;;;;;5.26;75.27;100609.97;4951467;28;20213;-70
2022/04/19 00:37:03;;;;;;;6.00;2.57;;;;;;;5.22;73.11;100613.41;4938351;28;20682;-70
2022/04/19 00:39:31;;;;;;;3.57;2.63;;;;;;;5.22;76.70;100602.22;4943992;28;20279;-71
2022/04/19 00:41:57;;;;;;;3.57;2.57;;;;;;;5.17;74.22;100601.38;4946841;28;20213;-69
2022/04/19 00:44:24;;;;;;;4.90;2.93;;;;;;;5.15;76.88;100590.19;4952043;28;20202;-70
2022/04/19 00:46:50;;;;;;;3.17;2.40;;;;;;;5.10;76.55;100596.25;4946110;29;21356;-71
2022/04/19 00:49:18;;;;;;;4.27;2.67;;;;;;;5.09;75.88;100588.50;4947593;29;20215;-70
2022/04/19 00:51:46;;;;;;;2.73;2.23;;;;;;;5.06;75.95;100583.31;4947146;28;20198;-71
2022/04/19 00:54:17;;;;;;;5.10;2.90;;;;;;;5.08;79.22;100579.88;4952493;28;20197;-70
2022/04/19 00:56:44;;;;;;;3.40;2.70;;;;;;;4.98;74.32;100588.53;4950655;28;20269;-70
2022/04/19 00:59:12;;;;;;;3.40;2.50;;;;;;;4.96;74.09;100592.84;4946545;29;20200;-70
2022/04/19 01:01:40;;;;;;;5.50;2.97;;;;;;;4.93;74.18;100590.28;4945676;29;20207;-70
2022/04/19 01:04:07;;;;;;;3.87;2.40;;;;;;;4.90;73.90;100588.53;4947204;28;20211;-70
2022/04/19 01:06:35;;;;;;;4.67;2.60;;;;;;;4.89;75.13;100581.69;4965941;28;20989;-70
2022/04/19 01:09:02;;;;;;;4.30;2.90;;;;;;;4.90;75.60;100575.63;4950406;28;20268;-70
2022/04/19 01:14:15;;;;;;;3.80;2.63;;;;;;;4.87;75.98;100575.66;4947068;29;20203;-70
2022/04/19 01:16:42;;;;;;;7.40;3.20;;;;;;;4.85;76.06;100571.34;4950009;29;20597;-70
2022/04/19 01:19:14;;;;;;;4.27;2.90;;;;;;;4.83;75.76;100573.06;4950267;29;20645;-70
2022/04/19 01:21:46;;;;;;;4.17;3.03;;;;;;;4.82;77.11;100568.75;4950380;29;20661;-70
2022/04/19 01:24:15;;;;;;;4.83;3.30;;;;;;;4.82;78.64;100558.44;4940467;29;20194;-70
2022/04/19 01:26:42;;;;;;;4.53;2.90;;;;;;;4.79;78.16;100561.06;4946430;29;20260;-70
2022/04/19 01:29:10;;;;;;;4.23;3.07;;;;;;;4.77;76.80;100562.75;4966370;28;20219;-69
2022/04/19 01:31:39;;;;;;;6.40;3.17;;;;;;;4.77;79.52;100561.06;4951342;28;20203;-71
2022/04/19 01:34:06;;;;;;;3.37;2.40;;;;;;;4.77;80.68;100561.06;4951405;28;20234;-70
2022/04/19 01:36:34;;;;;;;4.57;3.30;;;;;;;4.69;77.55;100563.63;4949962;28;20228;-71
2022/04/19 01:39:03;;;;;;;4.43;3.20;;;;;;;4.69;77.84;100563.63;4949589;29;20269;-71
2022/04/19 01:41:29;;;;;;;5.07;3.27;;;;;;;4.67;77.44;100554.19;4949925;29;20203;-70
2022/04/19 01:43:59;;;;;;;3.53;2.60;;;;;;;4.67;77.89;100562.78;4945938;29;20199;-70
2022/04/19 01:46:26;;;;;;;4.57;2.90;;;;;;;4.67;78.47;100560.22;4943688;28;20233;-70
2022/04/19 01:48:54;;;;;;;4.70;3.07;;;;;;;4.64;78.29;100557.63;4950206;28;20218;-69
2022/04/19 01:51:21;;;;;;;3.97;3.20;;;;;;;4.63;79.13;100552.50;4947708;29;20204;-71
2022/04/19 01:53:48;;;;;;;4.77;2.97;;;;;;;4.61;79.31;100560.25;4942986;28;20207;-70
2022/04/19 01:56:18;;;;;;;4.13;2.93;;;;;;;4.62;79.73;100555.94;4949162;28;20781;-70
2022/04/19 01:58:53;;;;;;;3.33;2.70;;;;;;;4.59;79.53;100556.81;4950203;28;20250;-69
2022/04/19 02:01:25;;;;;;;5.17;3.50;;;;;;;4.58;80.20;100561.97;4948007;28;20213;-71
2022/04/19 02:03:51;;;;;;;6.33;3.03;;;;;;;4.53;79.69;100557.66;4949935;28;20230;-70
2022/04/19 02:06:26;;;;;;;4.03;3.00;;;;;;;4.54;80.46;100553.38;4949558;29;20307;-71
2022/04/19 02:08:53;;;;;;;4.10;3.03;;;;;;;4.52;80.05;100555.97;4946758;28;20212;-71
2022/04/19 02:11:24;;;;;;;5.30;3.20;;;;;;;4.53;80.44;100549.91;4943471;28;20542;-70
2022/04/19 02:14:14;;;;;;;4.67;3.20;;;;;;;4.53;80.66;100546.47;4945977;29;20218;-70
2022/04/19 02:16:44;;;;;;;5.00;3.20;;;;;;;4.56;81.51;100554.22;4955729;28;20219;-71
2022/04/19 02:19:10;;;;;;;6.20;3.13;;;;;;;4.55;80.90;100549.91;4946904;28;20600;-70
2022/04/19 02:21:36;;;;;;;6.70;3.27;;;;;;;4.57;81.21;100544.75;4946883;28;20299;-69
2022/04/19 02:24:03;;;;;;;4.07;3.53;;;;;;;4.57;81.75;100545.59;4949739;28;20214;-70
2022/04/19 02:26:32;;;;;;;6.00;3.40;;;;;;;4.54;80.57;100545.63;4949302;28;20222;-71
2022/04/19 02:28:59;;;;;;;6.13;3.60;;;;;;;4.55;81.27;100542.16;4943212;29;20222;-71
2022/04/19 02:31:39;;;;;;;5.03;3.57;;;;;;;4.51;80.73;100537.88;4948657;28;20294;-70
2022/04/19 02:34:06;;;;;;;5.67;3.47;;;;;;;4.52;80.98;100544.75;4942134;29;20259;-70
2022/04/19 02:36:35;;;;;;;5.50;3.70;;;;;;;4.48;80.62;100541.31;4940260;29;20259;-70
2022/04/19 02:39:02;;;;;;;4.23;3.27;;;;;;;4.50;81.37;100537.03;4946904;29;20191;-70
2022/04/19 02:41:30;;;;;;;6.20;3.50;;;;;;;4.48;81.48;100530.97;4948578;29;20206;-70
2022/04/19 02:44:03;;;;;;;5.03;3.40;;;;;;;4.50;81.61;100534.44;4943023;29;20230;-70
2022/04/19 02:46:33;;;;;;;5.17;3.47;;;;;;;4.51;82.62;100527.56;4947502;29;20233;-71
2022/04/19 02:49:04;;;;;;;5.77;3.80;;;;;;;4.48;81.85;100530.97;4942072;28;20262;-71
2022/04/19 02:51:31;;;;;;;6.97;3.37;;;;;;;4.45;81.31;100531.03;4947623;29;20206;-70
2022/04/19 02:53:58;;;;;;;5.67;3.53;;;;;;;4.45;81.58;100522.38;4964838;28;20212;-71
2022/04/19 02:56:26;;;;;;;4.50;3.13;;;;;;;4.49;83.27;100516.38;4942406;28;20643;-70
2022/04/19 02:58:52;;;;;;;4.17;3.47;;;;;;;4.47;81.73;100531.03;4944267;29;20218;-70
2022/04/19 03:01:22;;;;;;;4.27;3.10;;;;;;;4.41;81.38;100523.28;4948485;28;20217;-71
2022/04/19 03:03:48;;;;;;;7.17;3.23;;;;;;;4.41;81.63;100529.28;4946513;29;20238;-70
2022/04/19 03:06:17;;;;;;;4.63;3.00;;;;;;;4.42;82.57;100525.84;4948207;29;20329;-71
2022/04/19 03:08:43;;;;;;;4.70;3.40;;;;;;;4.42;82.43;100525.00;4948302;29;20225;-70
2022/04/19 03:11:12;;;;;;;5.87;3.47;;;;;;;4.39;82.57;100520.69;4948371;28;20206;-70
2022/04/19 03:13:38;;;;;;;4.77;3.37;;;;;;;4.35;81.77;100521.56;4948538;28;20206;-70
2022/04/19 03:16:06;;;;;;;5.83;3.53;;;;;;;4.36;82.19;100520.69;4947047;29;20322;-70
2022/04/19 03:18:36;;;;;;;6.67;3.70;;;;;;;4.33;82.37;100516.41;4948347;29;20245;-71
2022/04/19 03:21:02;;;;;;;4.73;3.70;;;;;;;4.31;82.42;100517.25;4951089;28;20199;-68
2022/04/19 03:29:01;;;;;;;4.60;3.63;;;;;;;4.18;82.80;100514.69;4948684;28;20221;-71
2022/04/19 03:31:31;;;;;;;5.83;3.23;;;;;;;4.13;82.94;100508.72;4952590;28;20645;-71
2022/04/19 03:34:00;;;;;;;6.80;3.60;;;;;;;4.09;83.38;100514.72;4951877;28;20241;-70
2022/04/19 03:36:28;;;;;;;4.47;3.37;;;;;;;4.04;83.52;100515.59;4952602;29;20226;-70
2022/04/19 03:38:58;;;;;;;5.37;3.37;;;;;;;3.98;83.77;100501.00;4947875;29;20203;-70
2022/04/19 03:41:25;;;;;;;4.73;3.23;;;;;;;3.91;83.62;100507.88;4950884;28;20215;-70
2022/04/19 03:43:52;;;;;;;7.17;3.47;;;;;;;3.87;84.12;100502.69;4951128;29;20211;-70
2022/04/19 03:46:20;;;;;;;5.63;3.63;;;;;;;3.82;84.35;100501.84;4951425;28;20286;-70
2022/04/19 03:48:47;;;;;;;5.07;3.57;;;;;;;3.76;84.53;100501.00;4942082;29;20219;-71
2022/04/19 03:51:15;;;;;;;4.50;3.27;;;;;;;3.69;84.63;100501.84;4952526;28;20613;-70
2022/04/19 03:53:44;;;;;;;7.23;3.43;;;;;;;3.65;85.12;100502.72;4968779;28;20209;-71
2022/04/19 03:56:11;;;;;;;4.93;3.37;;;;;;;3.58;85.35;100507.00;4941411;28;20322;-70
2022/04/19 03:58:38;;;;;;;4.93;3.10;;;;;;;3.53;85.74;100500.97;4951768;28;20195;-70
2022/04/19 04:01:05;;;;;;;4.60;3.33;;;;;;;3.51;87.65;100497.53;4947222;29;20206;-70
2022/04/19 04:03:32;;;;;;;5.27;3.37;;;;;;;3.44;86.62;100500.13;4951963;29;20207;-69
2022/04/19 04:05:58;;;;;;;5.63;3.03;;;;;;;3.37;86.39;100512.97;4951820;29;20222;-70
2022/04/19 04:08:26;;;;;;;5.23;3.47;;;;;;;3.35;87.08;100512.13;4951720;28;20226;-70
2022/04/19 04:10:54;;;;;;;5.30;3.57;;;;;;;3.29;86.88;100509.56;4954774;28;20257;-71
2022/04/19 04:13:25;;;;;;;4.60;3.20;;;;;;;3.26;87.16;100513.84;4952932;28;20214;-71
2022/04/19 04:15:52;;;;;;;6.27;3.47;;;;;;;3.21;87.22;100524.97;4951405;29;20261;-70
2022/04/19 04:18:18;;;;;;;6.27;3.53;;;;;;;3.18;87.54;100522.41;4945846;28;20215;-70
2022/04/19 04:20:44;;;;;;;6.23;3.30;;;;;;;3.18;88.72;100521.53;4942511;29;20343;-71
2022/04/19 04:23:11;;;;;;;3.50;2.90;;;;;;;3.14;88.59;100525.81;4945244;29;20198;-70
2022/04/19 04:25:39;;;;;;;4.53;3.37;;;;;;;3.07;88.26;100523.25;4951215;29;20230;-70
2022/04/19 04:28:06;;;;;;;5.77;3.50;;;;;;;3.03;88.70;100524.94;4952108;29;20202;-70
2022/04/19 04:30:59;;;;;;;5.70;3.73;;;;;;;3.00;88.97;100519.78;4947916;29;20547;-71
2022/04/19 04:33:26;;;;;;;4.07;3.00;;;;;;;2.98;89.44;100527.50;4947089;28;20789;-70
2022/04/19 04:35:52;;;;;;;6.77;3.90;;;;;;;2.99;90.20;100523.19;4951609;28;20321;-71
2022/04/19 04:38:19;;;;;;;3.83;2.97;;;;;;;2.95;89.25;100522.31;4951095;29;20207;-69
2022/04/19 04:40:46;;;;;;;4.90;3.23;;;;;;;2.95;89.40;100519.75;4943137;28;20850;-70
2022/04/19 04:43:14;;;;;;;5.10;3.60;;;;;;;2.95;89.61;100516.31;4967329;28;20853;-70
2022/04/19 04:45:40;;;;;;;4.77;3.40;;;;;;;2.92;89.28;100518.88;4949976;28;20225;-70
2022/04/19 04:50:55;;;;;;;4.30;3.27;;;;;;;2.89;89.61;100512.03;4948091;28;20701;-70
2022/04/19 04:53:22;;;;;;;4.67;3.30;;;;;;;2.94;91.09;100514.63;4946807;29;20720;-71
2022/04/19 04:56:05;;;;;;;4.83;3.13;;;;;;;2.91;90.85;100512.03;4944903;29;20279;-71
2022/04/19 04:58:31;;;;;;;4.47;3.17;;;;;;;2.84;89.79;100514.56;4949795;29;20198;-70
2022/04/19 05:00:57;;;;;;;6.10;3.37;;;;;;;2.86;89.67;100518.88;4950975;29;20203;-70
2022/04/19 05:03:26;;;;;;;6.23;3.30;;;;;;;2.86;90.98;100517.16;4950925;28;20221;-71
2022/04/19 05:05:52;;;;;;;4.57;3.33;;;;;;;2.83;90.50;100520.59;4952582;28;20230;-70
2022/04/19 05:08:19;;;;;;;4.87;3.33;;;;;;;2.82;90.69;100521.44;4951185;28;20628;-71
2022/04/19 05:10:46;;;;;;;6.37;3.93;;;;;;;2.78;90.38;100530.00;4935319;29;20239;-70
2022/04/19 05:13:19;;;;;;;6.57;3.73;;;;;;;2.78;90.45;100524.84;4951341;28;20608;-71
2022/04/19 05:15:46;;;;;;;5.70;3.63;;;;;;;2.81;90.96;100532.59;4942789;28;20218;-70
2022/04/19 05:18:14;;;;;;;6.40;3.60;;;;;;;2.84;90.78;100530.00;4941175;28;20257;-70
2022/04/19 05:20:41;;;;;;;6.57;3.73;;;;;;;2.88;90.14;100532.59;4949014;29;20202;-71
2022/04/19 05:23:07;;;;;;;5.57;3.40;;;;;;;2.93;89.43;100529.19;4951130;28;20677;-70
2022/04/19 05:25:34;;;;;;;6.37;3.80;;;;;;;3.00;88.16;100530.94;4950798;29;20233;-71
2022/04/19 05:28:00;;;;;;;4.47;3.53;;;;;;;3.14;87.95;100535.28;4952573;28;20198;-70
2022/04/19 05:30:28;;;;;;;7.10;3.20;;;;;;;3.26;85.80;100542.19;4948302;28;20592;-70
2022/04/19 05:32:55;;;;;;;6.57;3.00;;;;;;;3.39;84.46;100542.22;4947338;28;20222;-69
2022/04/19 05:35:21;;;;;;;4.90;3.37;;;;;;;3.50;83.17;100536.19;4947899;29;20709;-70
2022/04/19 05:37:48;;;;;;;4.80;3.17;;;;;;;3.62;80.86;100546.53;4946353;28;20679;-70
2022/04/19 05:40:15;;;;;;;5.53;3.00;;;;;;;3.75;79.67;100542.25;4944583;29;20199;-70
2022/04/19 05:42:42;;;;;;;4.97;2.97;;;;;;;3.89;77.43;100548.28;4964721;28;20195;-70
2022/04/19 05:45:09;;;;;;;3.80;2.80;;;;;;;4.05;76.33;100553.44;4950086;28;20574;-70
2022/04/19 05:47:37;;;;;;;4.63;3.07;;;;;;;4.22;75.89;100556.00;4950232;28;20693;-70
2022/04/19 05:50:04;;;;;;;5.00;2.83;;;;;;;4.36;73.88;100549.09;4949591;29;20215;-70
2022/04/19 05:52:32;;;;;;;5.50;3.20;;;;;;;4.48;71.94;100558.53;4949142;28;20234;-70
2022/04/19 05:54:58;;;;;;;6.27;2.97;;;;;;;4.61;70.92;100565.41;4949707;29;20195;-70
2022/04/19 05:57:24;;;;;;;7.83;3.40;;;;;;;4.72;69.67;100563.63;4944042;28;20225;-71
2022/04/19 06:00:23;;;;;;;5.60;3.23;;;;;;;4.87;69.36;100562.75;4948661;29;20202;-70
2022/04/19 06:06:00;;;;;;;5.57;3.00;;;;;;;5.09;66.68;100571.25;4945842;29;20237;-69
2022/04/19 06:08:41;;;;;;;5.23;3.07;;;;;;;5.24;66.63;100570.34;4942834;29;21203;-70
2022/04/19 06:11:12;;;;;;;4.57;2.77;;;;;;;5.48;66.02;100577.06;4948395;29;20309;-71
2022/04/19 06:13:46;;;;;;;5.33;3.27;;;;;;;5.56;65.27;100582.22;4965209;28;20245;-70
2022/04/19 06:16:23;;;;;;;6.60;3.27;;;;;;;5.74;64.52;100578.66;4942715;29;20234;-71
2022/04/19 06:19:05;;;;;;;4.47;3.00;;;;;;;5.95;63.57;100593.16;4947742;28;20199;-71
2022/04/19 06:21:39;;;;;;;5.43;3.50;;;;;;;6.12;61.27;100585.31;4948961;28;20574;-70
2022/04/19 06:24:14;;;;;;;5.50;3.50;;;;;;;6.18;59.60;100592.16;4948357;28;20226;-70
2022/04/19 06:27:08;;;;;;;5.20;3.30;;;;;;;6.22;59.13;100588.66;4946699;29;20734;-71
2022/04/19 06:29:39;;;;;;;5.07;3.27;;;;;;;6.30;59.28;100583.38;4937925;29;20223;-71
2022/04/19 06:32:10;;;;;;;5.13;3.03;;;;;;;6.46;57.21;100595.34;4952008;28;20198;-68
2022/04/19 06:34:59;;;;;;;4.80;3.10;;;;;;;6.53;56.51;100603.91;4948290;29;20226;-71
2022/04/19 06:37:47;;;;;;;5.03;2.93;;;;;;;6.56;56.68;100607.34;4948898;28;20273;-71
2022/04/19 06:43:21;;;;;;;6.03;2.80;;;;;;;6.58;55.88;100602.16;4944672;28;20568;-71
2022/04/19 06:46:00;;;;;;;4.83;2.93;;;;;;;6.66;55.07;100599.47;4961367;28;20266;-70
2022/04/19 06:48:44;;;;;;;6.07;3.00;;;;;;;6.86;53.63;100599.25;4945129;29;20250;-71
2022/04/19 06:51:21;;;;;;;4.10;3.00;;;;;;;6.99;51.83;100606.84;4948130;28;20218;-71
2022/04/19 06:54:00;;;;;;;5.27;2.83;;;;;;;7.06;52.26;100606.81;4963889;28;20294;-70
2022/04/19 06:56:37;;;;;;;4.03;2.60;;;;;;;7.16;50.94;100603.22;4947855;29;20971;-70
2022/04/19 06:59:22;;;;;;;4.33;3.13;;;;;;;7.24;51.36;100601.38;4946408;29;20207;-71
2022/04/19 07:02:01;;;;;;;4.87;2.53;;;;;;;7.30;50.57;100606.50;4947312;29;20198;-71
2022/04/19 07:04:59;;;;;;;4.40;3.03;;;;;;;7.30;50.46;100597.84;4947229;29;20668;-71
2022/04/19 07:07:31;;;;;;;3.93;2.57;;;;;;;7.42;50.02;100594.22;4947492;29;20232;-70
2022/04/19 07:10:09;;;;;;;3.93;2.50;;;;;;;7.62;49.19;100594.81;4945907;28;20304;-70
2022/04/19 07:12:54;;;;;;;4.00;2.83;;;;;;;7.72;49.24;100592.94;4948069;29;20391;-71
2022/04/19 07:15:48;;;;;;;2.60;2.40;;;;;;;7.81;49.45;100592.81;4937832;29;20342;-70
2022/04/19 07:18:33;;;;;;;5.00;2.57;;;;;;;7.75;48.36;100590.28;4944988;29;20210;-70
2022/04/19 07:26:56;;;;;;;4.53;1.93;;;;;;;7.77;47.69;100593.72;4944610;29;20722;-70
2022/04/19 07:29:31;;;;;;;2.87;2.10;;;;;;;7.75;47.97;100585.97;4947668;29;20724;-70
2022/04/19 07:32:08;;;;;;;4.90;2.23;;;;;;;7.86;47.97;100578.03;4948210;28;20198;-71
2022/04/19 07:35:28;;;;;;;1.73;1.60;;;;;;;8.11;46.75;100586.28;4948502;28;20265;-69
2022/04/19 07:38:25;;;;;;;3.97;1.63;;;;;;;8.18;46.36;100578.38;4938489;29;20207;-70
2022/04/19 07:41:34;;;;;;;2.57;2.10;;;;;;;8.28;46.74;100579.94;4944113;29;20198;-69
2022/04/19 07:44:22;;;;;;;3.60;2.10;;;;;;;8.30;46.50;100583.34;4957071;28;20257;-70
2022/04/19 07:46:53;;;;;;;2.37;2.17;;;;;;;8.57;47.16;100583.78;4948521;28;20221;-70
2022/04/19 07:49:29;;;;;;;3.47;2.33;;;;;;;8.61;46.21;100577.66;4945973;28;20219;-71
2022/04/19 07:52:15;;;;;;;3.93;1.97;;;;;;;8.59;45.76;100584.63;4941955;29;20213;-70
2022/04/19 07:58:29;;;;;;;3.30;2.10;;;;;;;8.95;44.07;100590.84;4962526;28;20206;-71
2022/04/19 08:01:16;;;;;;;3.53;2.20;;;;;;;8.93;44.04;100589.16;4917947;28;20208;-71
2022/04/19 08:03:54;;;;;;;3.70;2.40;;;;;;;9.03;44.37;100586.34;4961399;28;20238;-71
2022/04/19 08:06:38;;;;;;;3.80;2.60;;;;;;;9.28;43.08;100591.03;4947404;28;20251;-70
2022/04/19 08:09:22;;;;;;;3.67;2.23;;;;;;;9.36;42.96;100583.94;4957168;28;20214;-70
2022/04/19 08:11:54;;;;;;;5.60;2.50;;;;;;;9.36;42.56;100585.69;4946060;28;20208;-71
2022/04/19 08:14:34;;;;;;;3.23;2.43;;;;;;;9.39;42.89;100583.00;4950543;28;20590;-71
2022/04/19 08:17:14;;;;;;;2.30;1.97;;;;;;;9.61;42.43;100584.22;4950099;28;20690;-70
2022/04/19 08:19:52;;;;;;;4.43;2.20;;;;;;;9.64;41.80;100588.53;4968260;28;20263;-70
2022/04/19 08:22:29;;;;;;;3.67;1.93;;;;;;;9.73;42.51;100579.66;4947712;28;20205;-70
2022/04/19 08:25:06;;;;;;;3.40;1.70;;;;;;;9.60;40.79;100584.25;4946835;28;20206;-70
2022/04/19 08:27:45;;;;;;;2.07;1.67;;;;;;;9.71;41.58;100578.81;4947624;28;20208;-71
2022/04/19 08:30:24;;;;;;;2.33;1.70;;;;;;;9.78;41.67;100580.38;4951848;28;20304;-70
2022/04/19 08:33:01;;;;;;;3.00;1.70;;;;;;;9.75;41.97;100567.44;4966112;28;20206;-71
2022/04/19 08:41:24;;;;;;;2.57;1.60;;;;;;;9.88;42.24;100578.41;4946553;29;20191;-71
2022/04/19 08:44:04;;;;;;;3.50;1.80;;;;;;;9.98;42.79;100574.69;4950751;28;20676;-69
2022/04/19 08:46:40;;;;;;;1.47;1.27;;;;;;;10.09;43.22;100577.88;4946276;28;20230;-70
2022/04/19 08:49:22;;;;;;;3.17;1.60;;;;;;;9.98;42.25;100583.38;4947798;29;20661;-71
2022/04/19 08:52:10;;;;;;;5.13;1.57;;;;;;;10.16;42.81;100582.06;4951107;28;20218;-70
2022/04/19 08:57:55;;;;;;;1.60;1.40;;;;;;;10.08;42.92;100573.59;4951968;28;20256;-71
2022/04/19 09:00:48;;;;;;;1.97;1.30;;;;;;;10.10;42.31;100577.00;4945518;28;20281;-71
2022/04/19 09:03:47;;;;;;;3.30;1.70;;;;;;;10.04;42.11;100570.22;4921298;29;20228;-71
2022/04/19 09:06:45;;;;;;;3.30;1.50;;;;;;;10.07;42.27;100571.88;4954469;28;20222;-71
2022/04/19 09:09:21;;;;;;;2.70;1.40;;;;;;;10.02;42.60;100571.97;4948482;28;20247;-71
2022/04/19 09:12:01;;;;;;;2.43;1.40;;;;;;;9.99;41.51;100573.78;4948728;29;20215;-71
2022/04/19 09:14:33;;;;;;;1.60;1.43;;;;;;;9.99;42.16;100584.22;4951186;28;20269;-70
2022/04/19 09:17:22;;;;;;;2.43;1.40;;;;;;;10.19;43.56;100579.38;4952396;28;20592;-71
2022/04/19 09:19:50;;;;;;;2.93;2.07;;;;;;;10.57;41.98;100569.75;4944190;28;20338;-70
2022/04/19 09:22:25;;;;;;;2.63;1.67;;;;;;;10.82;42.06;100571.69;4949912;28;20210;-71
2022/04/19 09:24:52;;;;;;;2.57;1.60;;;;;;;10.82;41.21;100581.22;4949824;28;20206;-71
2022/04/19 09:27:32;;;;;;;3.70;1.70;;;;;;;10.75;41.81;100576.19;4951711;28;20225;-71
2022/04/19 09:30:16;;;;;;;4.30;1.70;;;;;;;10.84;41.92;100580.31;4945424;28;20212;-71
2022/04/19 09:32:59;;;;;;;2.97;1.40;;;;;;;10.92;41.52;100574.88;4947365;29;20205;-70
2022/04/19 09:35:30;;;;;;;2.67;1.30;;;;;;;10.70;40.95;100587.66;4948452;29;20299;-71
2022/04/19 09:37:56;;;;;;;2.33;1.47;;;;;;;10.87;41.33;100574.13;4949326;28;20551;-70
2022/04/19 09:40:28;;;;;;;3.60;1.47;;;;;;;11.17;40.86;100581.09;4950002;28;20288;-69
2022/04/19 09:42:55;;;;;;;2.50;1.60;;;;;;;11.01;40.89;100579.84;4951356;28;20802;-70
2022/04/19 09:45:22;;;;;;;2.00;1.60;;;;;;;10.75;40.79;100586.63;4950505;28;20214;-70
2022/04/19 09:47:51;;;;;;;2.73;1.70;;;;;;;10.91;41.49;100581.84;4949468;29;20212;-70
2022/04/19 09:50:18;;;;;;;2.10;1.90;;;;;;;10.91;41.19;100581.84;4950688;28;20224;-70
2022/04/19 09:52:50;;;;;;;1.80;1.70;;;;;;;10.89;41.06;100590.63;4950400;28;20201;-71
2022/04/19 09:55:17;;;;;;;3.93;1.90;;;;;;;10.80;41.68;100584.75;4957319;28;20678;-70
2022/04/19 09:57:47;;;;;;;3.77;2.07;;;;;;;10.76;41.74;100582.25;4944933;28;20417;-70
2022/04/19 10:00:16;;;;;;;3.17;2.30;;;;;;;10.84;41.93;100584.69;4953834;28;20223;-70
2022/04/19 10:08:19;;;;;;;3.87;1.60;;;;;;;11.65;41.31;100578.81;4947897;28;20205;-70
2022/04/19 10:10:46;;;;;;;2.87;1.50;;;;;;;11.55;39.49;100604.34;4949918;28;20219;-71
2022/04/19 10:13:13;;;;;;;3.77;1.60;;;;;;;11.14;40.52;100586.41;4950013;28;20570;-71
2022/04/19 10:15:40;;;;;;;1.60;1.50;;;;;;;11.05;41.00;100588.44;4945930;28;20300;-71
2022/04/19 10:18:08;;;;;;;2.87;1.87;;;;;;;10.90;41.38;100598.38;4945600;28;20290;-71
2022/04/19 10:20:38;;;;;;;2.63;1.60;;;;;;;10.75;41.46;100604.03;4947598;29;20219;-71
2022/04/19 10:23:08;;;;;;;2.37;1.83;;;;;;;11.03;42.13;100595.44;4950246;28;20285;-71
2022/04/19 10:25:40;;;;;;;2.87;1.70;;;;;;;11.30;40.88;100593.78;4946221;29;20241;-71
2022/04/19 10:28:08;;;;;;;2.43;1.80;;;;;;;11.69;41.85;100581.25;4947834;28;20205;-71
2022/04/19 10:30:36;;;;;;;3.03;1.93;;;;;;;11.56;40.55;100596.47;4946860;28;20267;-71
2022/04/19 10:33:44;;;;;;;2.27;1.80;;;;;;;11.37;41.84;100592.69;4948762;28;20215;-71
2022/04/19 10:36:12;;;;;;;2.47;1.80;;;;;;;11.28;41.01;100595.59;4948650;29;20237;-71
2022/04/19 10:38:39;;;;;;;3.20;1.70;;;;;;;11.13;40.94;100589.94;4946647;28;20209;-71
2022/04/19 10:41:06;;;;;;;3.00;2.60;;;;;;;11.37;41.31;100585.72;4947222;29;20287;-71
2022/04/19 10:43:33;;;;;;;4.57;2.10;;;;;;;11.39;41.39;100593.50;4946272;28;20232;-71
2022/04/19 10:46:18;;;;;;;2.77;1.97;;;;;;;11.40;41.15;100595.22;4946821;29;20593;-71
2022/04/19 10:49:17;;;;;;;2.77;1.90;;;;;;;11.42;41.26;100582.97;4947096;29;20200;-71
2022/04/19 10:51:44;;;;;;;2.90;2.00;;;;;;;11.47;41.11;100606.34;4944329;28;20219;-71
2022/04/19 10:54:10;;;;;;;4.07;2.00;;;;;;;11.45;42.16;100595.94;4945133;28;20199;-71
2022/04/19 10:57:10;;;;;;;4.70;1.80;;;;;;;11.28;41.67;100603.44;4943718;28;20312;-71
2022/04/19 10:59:38;;;;;;;3.63;2.10;;;;;;;10.95;42.13;100600.88;4946447;29;20208;-71
2022/04/19 11:02:35;;;;;;;3.13;1.80;;;;;;;10.99;42.15;100600.75;4944113;28;20203;-71
2022/04/19 11:05:02;;;;;;;2.83;1.57;;;;;;;10.86;42.46;100611.56;4945656;29;20213;-71
2022/04/19 11:07:42;;;;;;;3.03;1.83;;;;;;;10.76;42.39;100611.84;4940847;28;20234;-71
2022/04/19 11:10:08;;;;;;;3.33;1.80;;;;;;;10.70;42.73;100614.59;4938449;29;20708;-71
2022/04/19 11:12:59;;;;;;;2.50;1.83;;;;;;;10.70;42.81;100618.94;4946462;29;20217;-71
2022/04/19 11:15:38;;;;;;;3.07;2.37;;;;;;;10.54;43.10;100611.53;4944023;28;20220;-71
2022/04/19 11:18:23;;;;;;;3.87;2.50;;;;;;;10.64;43.62;100614.75;4946937;28;20710;-71
2022/04/19 11:20:50;;;;;;;2.30;1.80;;;;;;;10.62;43.39;100621.75;4941130;28;20604;-71
2022/04/19 11:23:18;;;;;;;2.33;1.60;;;;;;;10.41;43.91;100621.44;4939133;28;20214;-71
2022/04/19 11:25:45;;;;;;;2.07;1.70;;;;;;;10.28;43.47;100633.00;4946707;28;20231;-71
2022/04/19 11:28:26;;;;;;;2.33;2.00;;;;;;;10.30;43.15;100632.97;4945853;28;20287;-71
2022/04/19 11:31:11;;;;;;;3.67;1.90;;;;;;;10.23;44.00;100634.88;4946455;28;20319;-71
2022/04/19 11:33:38;;;;;;;1.77;1.40;;;;;;;10.48;42.60;100637.75;4942329;28;20207;-71
2022/04/19 11:36:06;;;;;;;1.93;1.57;;;;;;;10.85;42.17;100628.09;4942878;28;20304;-71
2022/04/19 11:38:33;;;;;;;2.03;1.53;;;;;;;11.12;42.31;100629.09;4953286;28;20212;-71
2022/04/19 11:46:44;;;;;;;2.30;1.40;;;;;;;11.56;40.01;100645.22;4945956;28;20588;-71
2022/04/19 11:49:12;;;;;;;1.70;1.23;;;;;;;11.65;40.19;100644.94;4949039;28;20220;-71
2022/04/19 11:51:38;;;;;;;2.57;1.47;;;;;;;11.33;40.01;100661.56;4951057;28;20331;-71
2022/04/19 11:54:08;;;;;;;2.70;1.10;;;;;;;11.06;40.13;100657.97;4951800;28;20232;-71
2022/04/19 11:56:35;;;;;;;2.27;1.50;;;;;;;11.19;40.49;100654.13;4950076;29;20237;-71
2022/04/19 11:59:02;;;;;;;2.03;1.20;;;;;;;11.34;39.82;100645.00;4945411;28;20254;-71
2022/04/19 12:01:29;;;;;;;4.13;1.30;;;;;;;11.36;39.66;100653.63;4952440;28;20267;-71
2022/04/19 12:03:57;;;;;;;2.63;1.30;;;;;;;11.15;39.15;100653.38;4947713;29;20221;-71
2022/04/19 12:06:24;;;;;;;2.13;1.27;;;;;;;10.97;39.45;100649.47;4949405;29;20229;-71
2022/04/19 12:08:51;;;;;;;2.47;1.60;;;;;;;11.08;38.97;100657.03;4951586;28;20201;-71
2022/04/19 12:11:21;;;;;;;2.07;1.20;;;;;;;11.19;38.97;100656.75;4947722;28;20228;-71
2022/04/19 12:13:48;;;;;;;4.80;1.47;;;;;;;11.15;38.68;100649.88;4951217;28;20195;-71
2022/04/19 12:16:29;;;;;;;2.30;1.30;;;;;;;11.22;39.20;100663.63;4950884;28;20225;-71
2022/04/19 12:18:58;;;;;;;2.23;1.27;;;;;;;11.17;39.05;100661.16;4941765;29;20200;-71
2022/04/19 12:21:38;;;;;;;1.47;1.27;;;;;;;11.07;38.63;100655.31;4949868;28;20240;-71
2022/04/19 12:24:05;;;;;;;1.60;1.30;;;;;;;11.02;38.73;100659.81;4946444;28;20224;-71
2022/04/19 12:26:32;;;;;;;1.10;1.00;;;;;;;10.91;38.97;100664.47;4952945;28;20231;-71
2022/04/19 12:29:08;;;;;;;2.00;1.10;;;;;;;10.78;38.96;100656.97;4951432;28;20233;-71
2022/04/19 12:31:37;;;;;;;3.27;1.20;;;;;;;10.84;38.91;100657.72;4951660;29;20228;-71
2022/04/19 12:34:06;;;;;;;1.30;1.10;;;;;;;11.00;38.18;100656.38;4947247;29;20208;-71
2022/04/19 12:36:42;;;;;;;1.67;1.40;;;;;;;10.99;37.02;100665.09;4943891;28;20242;-71
2022/04/19 12:39:08;;;;;;;2.90;1.50;;;;;;;11.12;38.37;100655.19;4948108;29;20208;-71
2022/04/19 12:41:39;;;;;;;1.53;1.43;;;;;;;11.60;37.33;100651.22;4950364;28;20208;-71